createdAt,value
2023-04-15T00:01:19.414Z,100654.25
2023-04-15T00:03:48.684Z,100661.31
2023-04-15T00:06:19.478Z,100655.03
2023-04-15T00:08:48.117Z,100662.09
2023-04-15T00:11:16.509Z,100661.25
2023-04-15T00:13:45.645Z,100650.75
2023-04-15T00:16:14.060Z,100663.28
2023-04-15T00:18:42.495Z,100664.09
2023-04-15T00:21:10.800Z,100662.31
2023-04-15T00:23:40.655Z,100665.00
2023-04-15T00:26:09.620Z,100660.50
2023-04-15T00:28:38.492Z,100670.34
2023-04-15T00:31:06.970Z,100667.81
2023-04-15T00:33:36.698Z,100666.91
2023-04-15T00:36:08.579Z,100662.50
2023-04-15T00:38:39.049Z,100661.59
2023-04-15T00:41:09.149Z,100666.41
2023-04-15T00:43:37.507Z,100666.69
2023-04-15T00:46:07.585Z,100673.00
2023-04-15T00:48:36.982Z,100660.69
2023-04-15T00:51:05.496Z,100665.06
2023-04-15T00:53:34.559Z,100651.16
2023-04-15T00:56:02.876Z,100671.50
2023-04-15T00:58:32.672Z,100663.53
2023-04-15T01:01:01.967Z,100661.63
2023-04-15T01:03:31.866Z,100665.00
2023-04-15T01:06:03.617Z,100663.28
2023-04-15T01:08:33.000Z,100667.66
2023-04-15T01:11:03.638Z,100668.44
2023-04-15T01:13:35.278Z,100649.22
2023-04-15T01:16:04.002Z,100671.19
2023-04-15T01:18:32.873Z,100666.72
2023-04-15T01:21:03.672Z,100664.06
2023-04-15T01:23:33.160Z,100669.47
2023-04-15T01:26:03.549Z,100674.03
2023-04-15T01:28:32.264Z,100663.38
2023-04-15T01:31:10.775Z,100658.13
2023-04-15T01:33:39.579Z,100662.50
2023-04-15T01:36:10.031Z,100651.13
2023-04-15T01:38:39.203Z,100660.97
2023-04-15T01:41:09.100Z,100676.03
2023-04-15T01:43:37.865Z,100660.03
2023-04-15T01:46:07.287Z,100671.63
2023-04-15T01:48:35.937Z,100657.59
2023-04-15T01:51:05.674Z,100654.19
2023-04-15T01:53:34.331Z,100662.97
2023-04-15T01:56:04.301Z,100665.88
2023-04-15T01:58:34.190Z,100662.25
2023-04-15T02:01:03.060Z,100667.75
2023-04-15T02:03:33.610Z,100679.13
2023-04-15T02:06:02.509Z,100663.25
2023-04-15T02:08:30.803Z,100668.53
2023-04-15T02:11:01.168Z,100681.78
2023-04-15T02:13:30.212Z,100679.16
2023-04-15T02:16:01.037Z,100685.44
2023-04-15T02:18:29.469Z,100678.28
2023-04-15T02:20:58.558Z,100684.53
2023-04-15T02:23:27.258Z,100675.72
2023-04-15T02:25:55.716Z,100681.94
2023-04-15T02:28:24.263Z,100689.97
2023-04-15T02:30:53.734Z,100686.41
2023-04-15T02:33:23.775Z,100676.78
2023-04-15T02:35:53.256Z,100689.13
2023-04-15T02:38:21.784Z,100693.53
2023-04-15T02:40:51.086Z,100696.19
2023-04-15T02:43:19.421Z,100702.47
2023-04-15T02:45:48.460Z,100703.25
2023-04-15T02:48:19.408Z,100701.47
2023-04-15T02:50:49.032Z,100710.31
2023-04-15T02:53:19.874Z,100718.31
2023-04-15T02:55:48.343Z,100705.03
2023-04-15T02:58:17.107Z,100718.38
2023-04-15T03:00:45.523Z,100722.06
2023-04-15T03:03:15.270Z,100741.47
2023-04-15T03:05:43.781Z,100733.75
2023-04-15T03:08:14.969Z,100603.41
2023-04-15T03:10:43.324Z,100732.19
2023-04-15T03:13:11.719Z,100726.00
2023-04-15T03:15:40.666Z,100738.16
2023-04-15T03:18:09.102Z,100742.59
2023-04-15T03:20:37.514Z,100733.78
2023-04-15T03:23:06.068Z,100745.25
2023-04-15T03:25:37.436Z,100747.03
2023-04-15T03:28:07.801Z,100749.72
2023-04-15T03:30:36.364Z,100748.91
2023-04-15T03:33:04.885Z,100746.41
2023-04-15T03:35:33.961Z,100744.69
2023-04-15T03:38:02.301Z,100751.75
2023-04-15T03:40:30.740Z,100731.56
2023-04-15T03:43:00.542Z,100757.06
2023-04-15T03:45:28.915Z,100750.09
2023-04-15T03:48:03.595Z,100761.50
2023-04-15T03:50:39.711Z,100761.44
2023-04-15T03:53:07.998Z,100770.44
2023-04-15T03:55:36.360Z,100770.38
2023-04-15T03:58:06.104Z,100778.34
2023-04-15T04:00:34.493Z,100776.63
2023-04-15T04:03:03.041Z,100789.91
2023-04-15T04:05:31.782Z,100788.13
2023-04-15T04:08:00.031Z,100787.25
2023-04-15T04:10:28.402Z,100793.41
2023-04-15T04:12:56.743Z,100799.63
2023-04-15T04:15:27.105Z,100799.63
2023-04-15T04:17:55.580Z,100799.63
2023-04-15T04:20:25.115Z,100649.59
2023-04-15T04:22:53.498Z,100804.06
2023-04-15T04:25:21.997Z,100805.91
2023-04-15T04:27:50.505Z,100804.97
2023-04-15T04:30:18.932Z,100812.94
2023-04-15T04:32:48.640Z,100812.06
2023-04-15T04:35:17.086Z,100821.81
2023-04-15T04:37:45.409Z,100822.78
2023-04-15T04:40:14.879Z,100825.38
2023-04-15T04:42:43.302Z,100829.78
2023-04-15T04:45:12.373Z,100828.94
2023-04-15T04:47:40.720Z,100837.81
2023-04-15T04:50:11.672Z,100842.16
2023-04-15T04:52:40.595Z,100846.66
2023-04-15T04:55:09.679Z,100878.41
2023-04-15T04:57:39.601Z,100868.69
2023-04-15T05:00:10.833Z,100859.00
2023-04-15T05:02:39.674Z,100868.69
2023-04-15T05:05:10.968Z,100872.22
2023-04-15T05:07:39.545Z,100870.47
2023-04-15T05:10:09.864Z,100881.03
2023-04-15T05:12:38.642Z,100878.41
2023-04-15T05:15:09.120Z,100894.25
2023-04-15T05:17:37.610Z,100900.41
2023-04-15T05:20:07.502Z,100905.63
2023-04-15T05:22:37.181Z,100903.84
2023-04-15T05:25:06.606Z,100914.41
2023-04-15T05:27:34.974Z,100916.13
2023-04-15T05:30:03.385Z,100918.72
2023-04-15T05:32:31.909Z,100929.28
2023-04-15T05:35:00.285Z,100926.59
2023-04-15T05:37:28.683Z,100923.91
2023-04-15T05:39:58.369Z,100945.03
2023-04-15T05:42:26.760Z,100935.25
2023-04-15T05:44:55.185Z,100937.78
2023-04-15T05:47:23.784Z,100956.16
2023-04-15T05:49:52.226Z,100971.06
2023-04-15T05:52:20.604Z,100975.34
2023-04-15T05:54:48.931Z,100976.97
2023-04-15T05:57:18.663Z,100990.22
2023-04-15T05:59:47.153Z,100989.38
2023-04-15T06:02:15.671Z,100992.72
2023-04-15T06:04:44.073Z,100994.47
2023-04-15T06:07:12.592Z,101006.75
2023-04-15T06:09:41.220Z,101013.78
2023-04-15T06:12:12.236Z,101021.56
2023-04-15T06:14:42.225Z,101020.03
2023-04-15T06:17:10.881Z,101025.97
2023-04-15T06:19:39.366Z,101039.06
2023-04-15T06:22:08.032Z,101035.47
2023-04-15T06:24:37.127Z,101038.59
2023-04-15T06:27:05.709Z,101054.75
2023-04-15T06:29:34.439Z,101057.25
2023-04-15T06:32:04.195Z,101058.97
2023-04-15T06:34:32.606Z,101062.44
2023-04-15T06:37:01.605Z,101066.97
2023-04-15T06:39:30.018Z,101069.53
2023-04-15T06:41:58.296Z,101062.97
2023-04-15T06:44:26.786Z,101069.69
2023-04-15T06:46:55.160Z,101088.97
2023-04-15T06:49:24.897Z,101085.19
2023-04-15T06:51:53.245Z,101097.56
2023-04-15T06:54:21.828Z,101098.25
2023-04-15T06:56:50.258Z,101102.78
2023-04-15T06:59:19.153Z,101099.97
2023-04-15T07:01:47.611Z,101105.13
2023-04-15T07:04:16.390Z,101113.13
2023-04-15T07:06:46.317Z,101107.69
2023-04-15T07:09:15.885Z,101117.38
2023-04-15T07:11:44.298Z,101114.88
2023-04-15T07:14:13.394Z,101113.75
2023-04-15T07:16:42.006Z,101121.34
2023-04-15T07:19:10.599Z,101127.53
2023-04-15T07:21:41.704Z,101125.47
2023-04-15T07:24:11.916Z,101104.22
2023-04-15T07:26:40.443Z,101142.88
2023-04-15T07:29:08.871Z,101154.19
2023-04-15T07:31:37.822Z,101147.66
2023-04-15T07:34:08.023Z,101158.88
2023-04-15T07:36:36.858Z,101153.00
2023-04-15T07:39:06.040Z,101161.66
2023-04-15T07:41:35.889Z,101165.53
2023-04-15T07:44:04.268Z,101171.44
2023-04-15T07:46:32.655Z,101172.50
2023-04-15T07:49:01.627Z,101178.59
2023-04-15T07:51:30.670Z,101185.53
2023-04-15T07:53:58.980Z,101175.19
2023-04-15T07:56:27.815Z,101188.66
2023-04-15T07:58:57.507Z,101199.38
2023-04-15T08:01:25.899Z,101198.44
2023-04-15T08:03:55.441Z,101204.00
2023-04-15T08:06:23.935Z,101206.88
2023-04-15T08:08:52.725Z,101221.56
2023-04-15T08:11:21.216Z,101208.66
2023-04-15T08:13:49.587Z,101228.84
2023-04-15T08:16:24.623Z,101227.66
2023-04-15T08:18:56.622Z,101238.66
2023-04-15T08:21:26.128Z,101238.22
2023-04-15T08:23:55.545Z,101235.78
2023-04-15T08:26:24.149Z,101246.78
2023-04-15T08:28:52.506Z,101248.13
2023-04-15T08:31:22.322Z,101235.09
2023-04-15T08:33:52.084Z,101237.84
2023-04-15T08:36:21.126Z,101260.47
2023-04-15T08:38:49.415Z,101250.59
2023-04-15T08:41:23.349Z,101264.84
2023-04-15T08:43:59.065Z,101268.16
2023-04-15T08:46:29.539Z,101273.53
2023-04-15T08:49:00.535Z,101264.94
2023-04-15T08:51:29.950Z,101279.63
2023-04-15T08:53:58.329Z,101276.63
2023-04-15T08:56:27.886Z,101280.72
2023-04-15T08:58:56.790Z,101294.25
2023-04-15T09:01:26.034Z,101296.34
2023-04-15T09:03:56.478Z,101293.28
2023-04-15T09:06:25.683Z,101322.31
2023-04-15T09:08:54.202Z,101308.78
2023-04-15T09:11:24.764Z,101308.41
2023-04-15T09:13:53.256Z,101310.44
2023-04-15T09:16:21.560Z,101312.41
2023-04-15T09:18:50.023Z,101326.41
2023-04-15T09:21:20.041Z,101330.63
2023-04-15T09:23:59.287Z,101324.19
2023-04-15T09:26:35.835Z,101346.00
2023-04-15T09:29:07.925Z,101352.78
2023-04-15T09:31:36.915Z,101344.59
2023-04-15T09:34:05.498Z,101360.34
2023-04-15T09:36:54.211Z,101357.63
2023-04-15T09:39:22.697Z,101373.78
2023-04-15T09:42:07.964Z,101369.66
2023-04-15T09:44:36.736Z,101378.97
2023-04-15T09:47:05.489Z,101383.75
2023-04-15T09:49:34.261Z,101377.00
2023-04-15T09:52:06.039Z,101385.69
2023-04-15T09:54:37.389Z,101386.44
2023-04-15T09:57:10.058Z,101377.25
2023-04-15T09:59:38.720Z,101391.16
2023-04-15T10:02:08.212Z,101381.66
2023-04-15T10:04:41.568Z,101390.63
2023-04-15T10:07:11.668Z,101398.31
2023-04-15T10:09:41.325Z,101400.66
2023-04-15T10:12:11.268Z,101394.03
2023-04-15T10:14:40.969Z,101416.22
2023-04-15T10:17:12.866Z,101403.03
2023-04-15T10:19:42.929Z,101416.19
2023-04-15T10:22:13.082Z,101423.88
2023-04-15T10:24:42.660Z,101414.00
2023-04-15T10:27:11.564Z,101410.78
2023-04-15T10:29:40.112Z,101432.50
2023-04-15T10:32:08.660Z,101426.72
2023-04-15T10:34:38.355Z,101432.88
2023-04-15T10:37:06.931Z,101431.59
2023-04-15T10:39:44.616Z,101419.72
2023-04-15T10:42:15.488Z,101429.44
2023-04-15T10:44:46.158Z,101389.59
2023-04-15T10:47:15.516Z,101425.34
2023-04-15T10:49:50.032Z,101437.16
2023-04-15T10:52:23.608Z,101437.56
2023-04-15T10:55:04.750Z,101445.09
2023-04-15T10:57:38.599Z,101446.22
2023-04-15T11:00:15.893Z,101430.66
2023-04-15T11:02:49.318Z,101447.50
2023-04-15T11:05:19.506Z,101453.13
2023-04-15T11:07:54.452Z,101448.66
2023-04-15T11:10:55.140Z,101449.69
2023-04-15T11:13:31.656Z,101455.41
2023-04-15T11:16:02.151Z,101453.44
2023-04-15T11:18:33.612Z,101455.63
2023-04-15T11:21:05.115Z,101457.50
2023-04-15T11:23:37.485Z,101462.75
2023-04-15T11:26:11.985Z,101470.53
2023-04-15T11:28:43.019Z,101467.22
2023-04-15T11:31:13.168Z,101454.81
2023-04-15T11:33:48.922Z,101481.78
2023-04-15T11:36:17.821Z,101487.94
2023-04-15T11:38:48.213Z,101494.91
2023-04-15T11:41:23.308Z,101483.06
2023-04-15T11:43:52.340Z,101486.75
2023-04-15T11:46:21.508Z,101490.56
2023-04-15T11:48:49.947Z,101499.19
2023-04-15T11:51:18.596Z,101502.63
2023-04-15T11:53:48.874Z,101505.75
2023-04-15T11:56:23.984Z,101501.94
2023-04-15T11:58:57.062Z,101501.78
2023-04-15T12:01:33.581Z,101514.31
2023-04-15T12:04:03.858Z,101510.66
2023-04-15T12:06:36.889Z,101519.66
2023-04-15T12:09:13.840Z,101499.22
2023-04-15T12:11:48.391Z,101523.03
2023-04-15T12:14:28.280Z,101530.72
2023-04-15T12:17:00.258Z,101533.84
2023-04-15T12:19:32.548Z,101471.50
2023-04-15T12:22:04.163Z,101534.53
2023-04-15T12:24:35.138Z,101543.16
2023-04-15T12:27:06.638Z,101542.00
2023-04-15T12:29:37.481Z,101549.72
2023-04-15T12:32:08.647Z,101555.28
2023-04-15T12:34:38.824Z,101562.75
2023-04-15T12:37:10.135Z,101557.44
2023-04-15T12:39:40.606Z,101541.13
2023-04-15T12:42:11.409Z,101570.72
2023-04-15T12:44:40.461Z,101517.38
2023-04-15T12:47:10.670Z,101565.59
2023-04-15T12:49:39.441Z,101579.81
2023-04-15T12:52:08.118Z,101573.03
2023-04-15T12:54:36.642Z,101582.09
2023-04-15T12:57:07.172Z,101549.81
2023-04-15T12:59:37.804Z,101588.00
2023-04-15T13:02:06.589Z,101596.53
2023-04-15T13:04:35.121Z,101595.66
2023-04-15T13:07:03.802Z,101602.91
2023-04-15T13:09:32.419Z,101597.97
2023-04-15T13:12:05.357Z,101608.59
2023-04-15T13:14:33.701Z,101606.50
2023-04-15T13:17:08.889Z,101598.47
2023-04-15T13:19:37.667Z,101612.13
2023-04-15T13:22:06.973Z,101611.16
2023-04-15T13:24:35.395Z,101616.53
2023-04-15T13:27:04.326Z,101615.88
2023-04-15T13:29:32.639Z,101617.81
2023-04-15T13:32:02.532Z,101630.63
2023-04-15T13:34:30.859Z,101626.94
2023-04-15T13:36:59.228Z,101637.84
2023-04-15T13:39:27.573Z,101635.81
2023-04-15T13:41:55.996Z,101639.34
2023-04-15T13:44:24.326Z,101637.34
2023-04-15T13:46:53.294Z,101637.34
2023-04-15T13:49:22.954Z,101649.91
2023-04-15T13:51:52.134Z,101648.44
2023-04-15T13:54:20.438Z,101647.53
2023-04-15T13:56:48.714Z,101640.47
2023-04-15T13:59:17.126Z,101645.16
2023-04-15T14:01:45.566Z,101658.25
2023-04-15T14:04:14.711Z,101657.50
2023-04-15T14:06:44.610Z,101663.72
2023-04-15T14:09:13.010Z,101662.09
2023-04-15T14:11:41.481Z,101592.22
2023-04-15T14:14:09.890Z,101669.25
2023-04-15T14:16:38.244Z,101682.00
2023-04-15T14:19:06.849Z,101668.66
2023-04-15T14:21:35.461Z,101682.13
2023-04-15T14:24:05.892Z,101686.66
2023-04-15T14:26:34.269Z,101673.53
2023-04-15T14:29:03.909Z,101695.66
2023-04-15T14:31:32.425Z,101701.03
2023-04-15T14:34:00.683Z,101707.22
2023-04-15T14:36:29.102Z,101706.38
2023-04-15T14:38:57.470Z,101712.69
2023-04-15T14:41:27.245Z,101707.31
2023-04-15T14:43:56.602Z,101720.94
2023-04-15T14:46:24.929Z,101712.13
2023-04-15T14:48:53.602Z,101718.75
2023-04-15T14:51:21.951Z,101734.84
2023-04-15T14:53:50.356Z,101728.75
2023-04-15T14:56:18.665Z,101726.34
2023-04-15T14:58:49.357Z,101735.25
2023-04-15T15:01:17.711Z,101728.84
2023-04-15T15:03:46.180Z,101737.94
2023-04-15T15:06:14.694Z,101740.69
2023-04-15T15:08:43.054Z,101738.03
2023-04-15T15:11:11.641Z,101746.97
2023-04-15T15:13:39.936Z,101753.31
2023-04-15T15:16:11.396Z,101762.38
2023-04-15T15:18:41.495Z,101751.66
2023-04-15T15:21:09.859Z,101714.53
2023-04-15T15:23:38.213Z,101759.81
2023-04-15T15:26:07.118Z,101768.72
2023-04-15T15:28:36.009Z,101773.34
2023-04-15T15:31:05.350Z,101736.28
2023-04-15T15:33:35.315Z,101784.22
2023-04-15T15:36:05.328Z,101736.41
2023-04-15T15:38:33.748Z,101791.38
2023-04-15T15:41:02.076Z,101784.44
2023-04-15T15:43:30.446Z,101777.25
2023-04-15T15:45:58.736Z,101787.03
2023-04-15T15:48:27.111Z,101790.56
2023-04-15T15:50:57.729Z,101784.47
2023-04-15T15:53:26.125Z,101794.16
2023-04-15T15:55:54.486Z,101818.25
2023-04-15T15:58:22.844Z,101802.25
2023-04-15T16:00:51.299Z,101820.00
2023-04-15T16:03:19.936Z,101785.63
2023-04-15T16:05:48.442Z,101832.53
2023-04-15T16:08:20.137Z,101823.72
2023-04-15T16:10:48.549Z,101843.25
2023-04-15T16:13:16.904Z,101849.66
2023-04-15T16:15:45.301Z,101839.88
2023-04-15T16:18:13.649Z,101837.31
2023-04-15T16:20:42.091Z,101849.78
2023-04-15T16:23:15.040Z,101856.94
2023-04-15T16:25:45.819Z,101849.88
2023-04-15T16:28:25.762Z,101841.97
2023-04-15T16:30:55.563Z,101845.53
2023-04-15T16:33:23.926Z,101851.78
2023-04-15T16:35:53.067Z,101865.03
2023-04-15T16:38:21.541Z,101864.19
2023-04-15T16:40:51.535Z,101877.44
2023-04-15T16:43:20.140Z,101873.94
2023-04-15T16:45:51.028Z,101873.97
2023-04-15T16:48:20.134Z,101889.06
2023-04-15T16:50:49.639Z,101874.03
2023-04-15T16:53:18.047Z,101900.63
2023-04-15T16:55:46.417Z,101914.81
2023-04-15T16:58:16.328Z,101906.84
2023-04-15T17:00:45.199Z,101911.28
2023-04-15T17:03:13.989Z,101913.09
2023-04-15T17:05:42.949Z,101902.44
2023-04-15T17:08:11.279Z,101903.34
2023-04-15T17:10:39.794Z,101888.28
2023-04-15T17:13:08.283Z,101893.56
2023-04-15T17:15:38.139Z,101910.41
2023-04-15T17:18:06.729Z,101889.94
2023-04-15T17:20:35.527Z,101911.28
2023-04-15T17:23:04.873Z,101919.22
2023-04-15T17:25:33.112Z,101916.56
2023-04-15T17:28:02.022Z,101935.19
2023-04-15T17:30:30.661Z,101914.81
2023-04-15T17:33:00.762Z,101911.16
2023-04-15T17:35:29.282Z,101929.75
2023-04-15T17:37:58.310Z,101932.38
2023-04-15T17:40:26.673Z,101941.22
2023-04-15T17:42:55.267Z,101934.16
2023-04-15T17:45:23.610Z,101935.06
2023-04-15T17:47:51.909Z,101938.66
2023-04-15T17:50:22.476Z,101942.16
2023-04-15T17:52:51.547Z,101941.25
2023-04-15T17:55:22.112Z,101953.63
2023-04-15T17:57:50.568Z,101966.84
2023-04-15T18:00:19.052Z,101965.03
2023-04-15T18:02:48.812Z,101964.09
2023-04-15T18:05:18.823Z,101965.00
2023-04-15T18:07:49.054Z,101960.50
2023-04-15T18:10:17.518Z,101966.63
2023-04-15T18:12:45.965Z,101974.63
2023-04-15T18:15:14.560Z,101971.00
2023-04-15T18:17:42.988Z,101980.59
2023-04-15T18:20:12.829Z,101973.59
2023-04-15T18:22:41.273Z,101988.63
2023-04-15T18:25:11.632Z,101993.03
2023-04-15T18:27:40.396Z,101992.91
2023-04-15T18:30:10.515Z,101991.03
2023-04-15T18:32:39.798Z,101992.06
2023-04-15T18:35:09.258Z,101991.16
2023-04-15T18:37:37.641Z,102013.34
2023-04-15T18:40:08.596Z,101992.09
2023-04-15T18:42:38.506Z,101997.31
2023-04-15T18:45:08.303Z,101997.31
2023-04-15T18:47:36.684Z,102006.13
2023-04-15T18:50:05.302Z,102007.97
2023-04-15T18:52:33.823Z,101978.47
2023-04-15T18:55:03.387Z,102017.56
2023-04-15T18:57:34.778Z,102024.63
2023-04-15T19:00:08.241Z,102013.94
2023-04-15T19:02:36.742Z,102033.47
2023-04-15T19:05:06.996Z,102038.88
2023-04-15T19:07:36.130Z,102044.22
2023-04-15T19:10:05.087Z,102035.22
2023-04-15T19:12:33.666Z,102038.03
2023-04-15T19:15:01.967Z,102031.00
2023-04-15T19:17:31.730Z,102038.09
2023-04-15T19:20:00.157Z,102043.41
2023-04-15T19:22:30.640Z,102051.34
2023-04-15T19:24:59.134Z,102045.16
2023-04-15T19:27:28.278Z,102056.56
2023-04-15T19:29:56.676Z,102049.38
2023-04-15T19:32:25.111Z,102050.16
2023-04-15T19:34:54.937Z,102055.56
2023-04-15T19:37:23.340Z,102055.56
2023-04-15T19:39:51.673Z,102067.94
2023-04-15T19:42:20.051Z,102058.28
2023-04-15T19:44:48.471Z,102057.34
2023-04-15T19:47:16.844Z,102062.69
2023-04-15T19:49:45.278Z,102062.69
2023-04-15T19:52:15.004Z,102063.53
2023-04-15T19:54:43.368Z,102066.25
2023-04-15T19:57:11.678Z,102061.84
2023-04-15T19:59:40.048Z,101933.06
2023-04-15T20:02:08.808Z,102068.88
2023-04-15T20:04:37.313Z,102071.41
2023-04-15T20:07:05.678Z,102066.09
2023-04-15T20:09:35.530Z,102064.19
2023-04-15T20:12:09.681Z,102063.34
2023-04-15T20:14:52.432Z,102076.50
2023-04-15T20:17:20.798Z,102071.16
2023-04-15T20:19:49.164Z,102070.69
2023-04-15T20:22:17.517Z,102076.16
2023-04-15T20:24:47.385Z,102073.53
2023-04-15T20:27:15.776Z,102073.66
2023-04-15T20:29:44.110Z,102069.28
2023-04-15T20:32:12.886Z,102069.28
2023-04-15T20:34:41.275Z,102070.19
2023-04-15T20:37:11.403Z,102064.06
2023-04-15T20:39:41.338Z,102074.84
2023-04-15T20:42:11.194Z,102055.28
2023-04-15T20:44:39.615Z,102074.75
2023-04-15T20:47:08.164Z,102072.97
2023-04-15T20:49:36.858Z,102083.63
2023-04-15T20:52:06.447Z,102084.59
2023-04-15T20:54:35.048Z,102092.34
2023-04-15T20:57:03.541Z,102081.75
2023-04-15T20:59:34.829Z,102085.25
2023-04-15T21:02:03.355Z,102090.56
2023-04-15T21:04:31.789Z,102095.94
2023-04-15T21:07:00.133Z,102088.16
2023-04-15T21:09:28.458Z,102091.72
2023-04-15T21:12:01.529Z,102087.34
2023-04-15T21:14:31.011Z,102064.22
2023-04-15T21:17:03.334Z,102057.00
2023-04-15T21:19:31.730Z,102088.22
2023-04-15T21:22:00.336Z,102076.66
2023-04-15T21:24:29.146Z,102092.38
2023-04-15T21:26:57.717Z,102087.91
2023-04-15T21:29:26.605Z,102106.53
2023-04-15T21:31:55.085Z,102012.41
2023-04-15T21:34:25.029Z,102108.41
2023-04-15T21:36:53.402Z,102109.34
2023-04-15T21:39:21.801Z,102110.91
2023-04-15T21:41:50.260Z,102106.66
2023-04-15T21:44:18.638Z,102104.16
2023-04-15T21:46:47.116Z,102117.53
2023-04-15T21:49:16.091Z,102116.69
2023-04-15T21:51:46.377Z,102106.09
2023-04-15T21:54:14.750Z,102121.22
2023-04-15T21:56:43.734Z,102113.22
2023-04-15T21:59:12.177Z,102119.13
2023-04-15T22:01:40.545Z,102121.09
2023-04-15T22:04:10.916Z,102113.06
2023-04-15T22:06:39.777Z,102124.59
2023-04-15T22:09:11.997Z,102112.28
2023-04-15T22:11:41.904Z,102114.91
2023-04-15T22:14:10.528Z,102121.94
2023-04-15T22:16:39.001Z,102122.78
2023-04-15T22:19:07.585Z,102128.09
2023-04-15T22:21:36.323Z,102130.66
2023-04-15T22:24:38.818Z,102137.69
2023-04-15T22:26:54.881Z,102140.25
2023-04-15T22:29:23.369Z,102132.31
2023-04-15T22:31:51.956Z,102137.63
2023-04-15T22:34:21.591Z,102135.81
2023-04-15T22:36:50.792Z,102124.69
2023-04-15T22:39:19.703Z,102096.34
2023-04-15T22:41:48.057Z,102142.53
2023-04-15T22:44:17.818Z,102149.66
2023-04-15T22:46:46.278Z,102147.09
2023-04-15T22:49:14.511Z,102143.50
2023-04-15T22:51:42.915Z,102147.78
2023-04-15T22:54:11.335Z,102146.13
2023-04-15T22:56:39.769Z,102144.31
2023-04-15T22:59:08.344Z,102147.09
2023-04-15T23:01:39.043Z,102160.44
2023-04-15T23:04:09.615Z,102160.38
2023-04-15T23:06:52.472Z,102124.59
2023-04-15T23:09:20.996Z,102164.66
2023-04-15T23:11:49.374Z,102153.97
2023-04-15T23:14:17.742Z,102167.50
2023-04-15T23:16:47.551Z,102178.00
2023-04-15T23:19:15.996Z,102177.38
2023-04-15T23:21:44.439Z,102143.66
2023-04-15T23:24:13.425Z,102175.63
2023-04-15T23:26:41.954Z,102177.03
2023-04-15T23:29:11.301Z,102176.19
2023-04-15T23:31:41.550Z,102173.63
2023-04-15T23:34:11.471Z,102168.59
2023-04-15T23:36:40.428Z,102161.63
2023-04-15T23:39:09.129Z,102173.16
2023-04-15T23:41:37.699Z,102165.25
2023-04-15T23:44:07.159Z,102165.13
2023-04-15T23:46:35.540Z,102163.50
2023-04-15T23:49:03.900Z,102162.63
2023-04-15T23:51:33.681Z,102166.16
2023-04-15T23:54:02.059Z,102159.06
2023-04-15T23:56:30.455Z,102172.09
2023-04-15T23:58:58.831Z,102172.16
